Aiquara, Brazil
Current Conditions -  °F | °C
As of 9:00 AM on Sunday 23 Nov 2014 (Local Time) from SBIL Reporting Station
Rain Showers Rain Showers  
Wind Chill: 79°   Ceiling: 7000
Heat Index: 82°   Visibility: 5mi
Dew Point: 72°   Wind: 14mph
Humidity: 78%   Direction: 80°E
Pressure: 29.97"   Gusts: NA
Location:  14.13°S, 39.89°W
Report Text: SBIL 231200Z 08012KT 8000 VCSH SCT015 SCT030 BKN070 26/22 Q1015
Loading
Personal Weather Stations






























Interactive Weather Map New forecast layout! Learn more

10-Day Weather Forecast

Advertisements
Track Severe Weather on mobile